Time;durP1;ratioP1;P1;durP2;ratioP2;P2;SDS_P1;SDS_P2;PMS_P1;PMS_P2;Temp;Humidity;BMP_temperature;BMP_pressure;BME280_temperature;BME280_humidity;BME280_pressure;Samples;Min_cycle;Max_cycle;Signal;HPM_P1;HPM_P2
2024/02/11 00:01:08;;;;;;;0.00;0.00;;;;;;;8.28;100.00;97099.31;6249420;22;20082;-77
2024/02/11 00:03:38;;;;;;;0.00;0.00;;;;;;;8.17;100.00;97091.56;6221817;23;20027;-74
2024/02/11 00:06:06;;;;;;;0.00;0.00;;;;;;;8.04;100.00;97087.16;6249755;23;20026;-77
2024/02/11 00:08:32;;;;;;;0.00;0.00;;;;;;;7.90;100.00;97097.50;6224150;23;20004;-78
2024/02/11 00:10:57;;;;;;;0.00;0.00;;;;;;;7.77;100.00;97093.91;6248187;23;20019;-77
2024/02/11 00:13:23;;;;;;;0.00;0.00;;;;;;;7.61;100.00;97091.75;6225715;23;20000;-74
2024/02/11 00:15:48;;;;;;;0.00;0.00;;;;;;;7.53;100.00;97099.97;6248867;23;20016;-76
2024/02/11 00:18:15;;;;;;;0.00;0.00;;;;;;;7.40;100.00;97085.47;6249788;23;20004;-76
2024/02/11 00:20:41;;;;;;;0.00;0.00;;;;;;;7.38;100.00;97104.81;6223563;23;20004;-76
2024/02/11 00:23:09;;;;;;;0.00;0.00;;;;;;;7.33;100.00;97092.22;6228774;23;20014;-75
2024/02/11 00:25:38;;;;;;;0.00;0.00;;;;;;;7.40;100.00;97097.13;6232402;23;20000;-75
2024/02/11 00:28:04;;;;;;;0.00;0.00;;;;;;;7.49;100.00;97106.06;6206283;23;20101;-76
2024/02/11 00:30:30;;;;;;;0.00;0.00;;;;;;;7.61;100.00;97096.41;6208571;23;20012;-75
2024/02/11 00:32:58;;;;;;;0.00;0.00;;;;;;;7.77;100.00;97105.59;6179875;23;20011;-76
2024/02/11 00:35:24;;;;;;;0.00;0.00;;;;;;;7.99;100.00;97103.72;6225183;23;20008;-76
2024/02/11 00:37:50;;;;;;;0.00;0.00;;;;;;;8.14;100.00;97108.56;6199135;23;20347;-76
2024/02/11 00:40:16;;;;;;;0.00;0.00;;;;;;;8.28;100.00;97115.66;6225511;23;19996;-76
2024/02/11 00:42:47;;;;;;;0.00;0.00;;;;;;;8.36;100.00;97103.91;6253016;23;19999;-76
2024/02/11 00:45:14;;;;;;;0.10;0.10;;;;;;;8.38;100.00;97101.66;6221999;23;20095;-76
2024/02/11 00:47:40;;;;;;;0.00;0.00;;;;;;;8.50;100.00;97109.13;6222153;23;20011;-76
2024/02/11 00:50:13;;;;;;;0.00;0.00;;;;;;;8.53;100.00;97108.47;6218210;23;20004;-76
2024/02/11 00:52:44;;;;;;;0.00;0.00;;;;;;;8.58;100.00;97104.72;6221622;23;20015;-75
2024/02/11 00:55:11;;;;;;;0.10;0.10;;;;;;;8.64;100.00;97108.84;6220039;23;20018;-76
2024/02/11 00:57:37;;;;;;;0.00;0.00;;;;;;;8.65;100.00;97103.06;6222019;23;20446;-76
2024/02/11 01:00:09;;;;;;;0.00;0.00;;;;;;;8.65;100.00;97096.81;6246753;23;19988;-75
2024/02/11 01:02:35;;;;;;;0.00;0.00;;;;;;;8.78;100.00;97109.34;6220299;23;20717;-75
2024/02/11 01:05:01;;;;;;;0.00;0.00;;;;;;;8.77;100.00;97104.25;6195659;23;20063;-75
2024/02/11 01:07:26;;;;;;;0.00;0.00;;;;;;;8.81;100.00;97108.69;6197035;23;20028;-75
2024/02/11 01:09:51;;;;;;;0.00;0.00;;;;;;;8.81;100.00;97105.16;6196657;23;20362;-75
2024/02/11 01:12:17;;;;;;;0.00;0.00;;;;;;;8.84;100.00;97113.47;6247044;23;20012;-75
2024/02/11 01:14:43;;;;;;;0.00;0.00;;;;;;;8.93;100.00;97115.31;6220259;23;20335;-78
2024/02/11 01:17:09;;;;;;;0.00;0.00;;;;;;;8.91;100.00;97113.72;6221861;23;20098;-76
2024/02/11 01:19:35;;;;;;;0.00;0.00;;;;;;;8.96;100.00;97114.63;6220381;23;20097;-75
2024/02/11 01:22:01;;;;;;;0.00;0.00;;;;;;;8.97;100.00;97106.13;6172108;23;20422;-75
2024/02/11 01:24:27;;;;;;;0.00;0.00;;;;;;;9.02;100.00;97113.28;6193681;23;20023;-75
2024/02/11 01:26:53;;;;;;;0.00;0.00;;;;;;;8.98;100.00;97117.81;6221674;23;20012;-74
2024/02/11 01:29:18;;;;;;;0.00;0.00;;;;;;;8.88;100.00;97108.16;6192619;23;20012;-76
2024/02/11 01:31:44;;;;;;;0.00;0.00;;;;;;;8.80;100.00;97101.63;6220800;23;20039;-75
2024/02/11 01:34:09;;;;;;;0.00;0.00;;;;;;;8.81;100.00;97122.31;6220725;23;20437;-75
2024/02/11 01:36:35;;;;;;;0.00;0.00;;;;;;;8.69;100.00;97117.59;6217434;23;20517;-76
2024/02/11 01:39:03;;;;;;;0.00;0.00;;;;;;;8.68;100.00;97124.19;6222768;23;20012;-76
2024/02/11 01:41:28;;;;;;;0.00;0.00;;;;;;;8.66;100.00;97128.34;6216417;23;19997;-76
2024/02/11 01:43:56;;;;;;;0.00;0.00;;;;;;;8.54;100.00;97108.13;6221951;23;20423;-74
2024/02/11 01:46:21;;;;;;;0.00;0.00;;;;;;;8.58;100.00;97124.59;6194730;23;20004;-75
2024/02/11 01:48:47;;;;;;;0.00;0.00;;;;;;;8.40;100.00;97093.97;6194966;23;20527;-74
2024/02/11 01:51:17;;;;;;;0.00;0.00;;;;;;;8.49;100.00;97113.75;6170572;23;20016;-75
2024/02/11 01:53:52;;;;;;;0.00;0.00;;;;;;;8.58;100.00;97115.63;6244260;23;20012;-75
2024/02/11 01:56:23;;;;;;;0.00;0.00;;;;;;;8.59;100.00;97114.50;6248477;23;20441;-77
2024/02/11 01:58:51;;;;;;;0.00;0.00;;;;;;;8.70;100.00;97135.56;6244751;23;20001;-74
2024/02/11 02:01:21;;;;;;;0.00;0.00;;;;;;;8.59;100.00;97114.50;6197443;23;20015;-75
2024/02/11 02:03:47;;;;;;;0.00;0.00;;;;;;;8.72;100.00;97127.03;6220649;23;20039;-76
2024/02/11 02:06:23;;;;;;;0.00;0.00;;;;;;;8.49;100.00;97096.63;6197208;23;20011;-76
2024/02/11 02:08:59;;;;;;;0.00;0.00;;;;;;;8.47;100.00;97098.88;6248675;22;20101;-75
2024/02/11 02:11:28;;;;;;;0.00;0.00;;;;;;;8.59;100.00;97115.28;6218346;23;20008;-76
2024/02/11 02:13:57;;;;;;;0.00;0.00;;;;;;;8.66;100.00;97144.69;6220415;23;20943;-76
2024/02/11 02:16:23;;;;;;;0.00;0.00;;;;;;;8.46;100.00;97114.44;6218855;23;20000;-74
2024/02/11 02:18:51;;;;;;;0.00;0.00;;;;;;;8.61;100.00;97140.25;6219046;23;20015;-75
2024/02/11 02:21:21;;;;;;;0.00;0.00;;;;;;;8.51;100.00;97127.88;6219217;23;20008;-76
2024/02/11 02:23:47;;;;;;;0.00;0.00;;;;;;;8.48;100.00;97138.59;6222735;23;20000;-74
2024/02/11 02:26:15;;;;;;;0.00;0.00;;;;;;;8.42;100.00;97129.03;6194189;23;20016;-75
2024/02/11 02:28:48;;;;;;;0.00;0.00;;;;;;;8.51;100.00;97141.47;6173304;23;20377;-76
2024/02/11 02:31:14;;;;;;;0.00;0.00;;;;;;;8.55;100.00;97145.09;6219434;23;20011;-75
2024/02/11 02:33:39;;;;;;;0.00;0.00;;;;;;;8.64;100.00;97146.97;6221072;23;20007;-75
2024/02/11 02:36:05;;;;;;;0.00;0.00;;;;;;;8.66;100.00;97153.69;6192595;23;20434;-76
2024/02/11 02:38:33;;;;;;;0.00;0.00;;;;;;;8.58;100.00;97131.97;6169139;23;20004;-75
2024/02/11 02:40:58;;;;;;;0.00;0.00;;;;;;;8.73;100.00;97151.22;6224223;23;20004;-75
2024/02/11 02:43:46;;;;;;;0.00;0.00;;;;;;;8.83;100.00;97150.00;6190438;23;20400;-76
2024/02/11 02:46:16;;;;;;;0.00;0.00;;;;;;;8.85;100.00;97147.75;6219770;23;20000;-75
2024/02/11 02:48:43;;;;;;;0.00;0.00;;;;;;;8.78;100.00;97142.03;6220074;23;19993;-75
2024/02/11 02:51:11;;;;;;;0.00;0.00;;;;;;;8.85;100.00;97153.19;6195078;23;20382;-77
2024/02/11 02:53:37;;;;;;;0.00;0.00;;;;;;;8.84;100.00;97145.38;6247047;23;20012;-75
2024/02/11 02:56:05;;;;;;;0.00;0.00;;;;;;;8.83;100.00;97155.44;6223913;23;20091;-75
2024/02/11 02:58:31;;;;;;;0.00;0.00;;;;;;;8.77;100.00;97151.34;6221224;23;20067;-74
2024/02/11 03:01:01;;;;;;;0.00;0.00;;;;;;;8.74;100.00;97154.72;6246643;23;20004;-74
2024/02/11 03:03:30;;;;;;;0.00;0.00;;;;;;;8.75;100.00;97159.06;6221211;23;20339;-74
2024/02/11 03:06:01;;;;;;;0.00;0.00;;;;;;;8.61;100.00;97139.47;6245008;23;20070;-74
2024/02/11 03:08:29;;;;;;;0.00;0.00;;;;;;;8.78;100.00;97163.84;6212791;22;20009;-74
2024/02/11 03:10:57;;;;;;;0.00;0.00;;;;;;;8.64;100.00;97139.59;6215559;23;20430;-75
2024/02/11 03:13:22;;;;;;;0.00;0.00;;;;;;;8.79;100.00;97165.44;6192980;23;20017;-73
2024/02/11 03:15:50;;;;;;;0.00;0.00;;;;;;;8.75;100.00;97156.34;6215296;23;20085;-73
2024/02/11 03:18:16;;;;;;;0.00;0.00;;;;;;;8.80;100.00;97171.69;6215105;23;20016;-73
2024/02/11 03:20:41;;;;;;;0.00;0.00;;;;;;;8.76;100.00;97166.13;6210951;23;20019;-72
2024/02/11 03:23:07;;;;;;;0.00;0.00;;;;;;;8.82;100.00;97170.22;6188083;23;20004;-72
2024/02/11 03:25:32;;;;;;;0.00;0.00;;;;;;;8.83;100.00;97171.78;6211779;23;20004;-72
2024/02/11 03:27:58;;;;;;;0.05;0.05;;;;;;;8.84;100.00;97172.63;6213750;23;20041;-74
2024/02/11 03:30:23;;;;;;;0.00;0.00;;;;;;;8.83;100.00;97177.25;6215017;23;20056;-73
2024/02/11 03:32:49;;;;;;;0.00;0.00;;;;;;;8.81;100.00;97182.25;6161568;23;20080;-72
2024/02/11 03:35:16;;;;;;;0.00;0.00;;;;;;;8.73;100.00;97177.66;6218329;23;20023;-72
2024/02/11 03:37:41;;;;;;;0.00;0.00;;;;;;;8.72;100.00;97176.88;6186373;23;20011;-73
2024/02/11 03:40:12;;;;;;;0.00;0.00;;;;;;;8.78;100.00;97180.19;6161961;23;20340;-75
2024/02/11 03:42:39;;;;;;;0.00;0.00;;;;;;;8.82;100.00;97181.13;6212355;23;20431;-75
2024/02/11 03:45:09;;;;;;;0.00;0.00;;;;;;;8.83;100.00;97188.13;6213828;23;20004;-76
2024/02/11 03:47:34;;;;;;;0.00;0.00;;;;;;;8.82;100.00;97186.56;6214330;23;20501;-76
2024/02/11 03:50:00;;;;;;;0.00;0.00;;;;;;;8.82;100.00;97192.03;6180441;23;20009;-76
2024/02/11 03:52:25;;;;;;;0.00;0.00;;;;;;;8.72;100.00;97181.53;6211626;23;20051;-75
2024/02/11 03:54:51;;;;;;;0.00;0.00;;;;;;;8.79;100.00;97189.97;6164855;23;20009;-76
2024/02/11 03:57:16;;;;;;;0.00;0.00;;;;;;;8.76;100.00;97187.91;6164844;23;20095;-76
2024/02/11 03:59:45;;;;;;;0.00;0.00;;;;;;;8.74;100.00;97190.16;6161890;23;20009;-75
2024/02/11 04:02:11;;;;;;;0.00;0.00;;;;;;;8.78;100.00;97201.97;6212670;23;20016;-76
2024/02/11 04:04:39;;;;;;;0.00;0.00;;;;;;;8.77;100.00;97194.94;6214733;23;20012;-77
2024/02/11 04:07:09;;;;;;;0.00;0.00;;;;;;;8.73;100.00;97199.44;6217269;23;20012;-76
2024/02/11 04:09:39;;;;;;;0.00;0.00;;;;;;;8.80;100.00;97209.81;6220009;23;20016;-76
2024/02/11 04:12:07;;;;;;;0.00;0.00;;;;;;;8.74;100.00;97201.03;6200445;22;20015;-77
2024/02/11 04:14:32;;;;;;;0.00;0.00;;;;;;;8.78;100.00;97209.38;6174871;23;20070;-76
2024/02/11 04:16:58;;;;;;;0.00;0.00;;;;;;;8.75;100.00;97219.00;6195987;23;20008;-76
2024/02/11 04:19:25;;;;;;;0.00;0.00;;;;;;;8.75;100.00;97224.44;6222925;23;20015;-74
2024/02/11 04:21:51;;;;;;;0.00;0.00;;;;;;;8.73;100.00;97221.25;6191550;23;20016;-75
2024/02/11 04:24:17;;;;;;;0.00;0.00;;;;;;;8.68;100.00;97226.91;6219927;23;20056;-74
2024/02/11 04:26:43;;;;;;;0.00;0.00;;;;;;;8.65;100.00;97222.91;6217427;23;19996;-75
2024/02/11 04:29:11;;;;;;;0.00;0.00;;;;;;;8.48;100.00;97204.75;6220166;23;20445;-75
2024/02/11 04:31:39;;;;;;;0.00;0.00;;;;;;;8.47;100.00;97214.06;6221016;23;20004;-76
2024/02/11 04:34:05;;;;;;;0.00;0.00;;;;;;;8.46;100.00;97223.34;6219541;23;20031;-77
2024/02/11 04:36:33;;;;;;;0.00;0.00;;;;;;;8.34;100.00;97221.31;6220251;23;20016;-76
2024/02/11 04:38:59;;;;;;;0.00;0.00;;;;;;;8.33;100.00;97235.25;6195760;23;20008;-76
2024/02/11 04:41:25;;;;;;;0.00;0.00;;;;;;;8.28;100.00;97232.72;6221559;23;19984;-77
2024/02/11 04:43:51;;;;;;;0.05;0.05;;;;;;;8.24;100.00;97229.06;6219807;23;20119;-76
2024/02/11 04:46:19;;;;;;;0.00;0.00;;;;;;;8.27;100.00;97245.53;6219156;23;20009;-76
2024/02/11 04:48:45;;;;;;;0.00;0.00;;;;;;;8.21;100.00;97244.91;6245833;23;20012;-77
2024/02/11 04:51:14;;;;;;;0.00;0.00;;;;;;;8.26;100.00;97252.09;6197188;23;20351;-77
2024/02/11 04:53:40;;;;;;;0.00;0.00;;;;;;;8.25;100.00;97255.16;6196415;23;20478;-77
2024/02/11 04:56:08;;;;;;;0.00;0.00;;;;;;;8.29;100.00;97267.00;6171366;23;20035;-76
2024/02/11 04:58:34;;;;;;;0.00;0.00;;;;;;;8.26;100.00;97260.25;6221386;23;20062;-76
2024/02/11 05:00:59;;;;;;;0.00;0.00;;;;;;;8.29;100.00;97267.78;6220190;23;20374;-78
2024/02/11 05:03:27;;;;;;;0.00;0.00;;;;;;;8.28;100.00;97262.66;6250580;23;19999;-76
2024/02/11 05:05:53;;;;;;;0.00;0.00;;;;;;;8.27;100.00;97263.81;6196355;23;20387;-77
2024/02/11 05:08:19;;;;;;;0.00;0.00;;;;;;;8.33;100.00;97287.00;6248532;23;20000;-76
2024/02/11 05:10:46;;;;;;;0.00;0.00;;;;;;;8.32;100.00;97294.38;6221957;23;20012;-75
2024/02/11 05:13:16;;;;;;;0.00;0.00;;;;;;;8.35;100.00;97292.91;6221003;23;20027;-76
2024/02/11 05:15:44;;;;;;;0.00;0.00;;;;;;;8.38;100.00;97298.50;6195230;23;20019;-74
2024/02/11 05:18:14;;;;;;;0.00;0.00;;;;;;;8.39;100.00;97308.25;6216488;23;20004;-78
2024/02/11 05:20:41;;;;;;;0.00;0.00;;;;;;;8.37;100.00;97307.00;6247504;23;20008;-76
2024/02/11 05:23:09;;;;;;;0.00;0.00;;;;;;;8.35;100.00;97309.22;6223598;23;20059;-76
2024/02/11 05:25:36;;;;;;;0.00;0.00;;;;;;;8.35;100.00;97320.13;6219965;23;19997;-75
2024/02/11 05:28:05;;;;;;;0.00;0.00;;;;;;;8.34;100.00;97324.00;6223732;23;20081;-76
2024/02/11 05:30:34;;;;;;;0.00;0.00;;;;;;;8.31;100.00;97335.50;6220012;23;20008;-76
2024/02/11 05:33:02;;;;;;;0.00;0.00;;;;;;;8.28;100.00;97330.72;6174130;23;19994;-76
2024/02/11 05:35:28;;;;;;;0.00;0.00;;;;;;;8.27;100.00;97345.47;6194563;23;20027;-72
2024/02/11 05:37:58;;;;;;;0.00;0.00;;;;;;;8.23;100.00;97333.63;6222383;23;20008;-73
2024/02/11 05:40:28;;;;;;;0.00;0.00;;;;;;;8.29;100.00;97354.09;6194431;23;20019;-73
2024/02/11 05:42:54;;;;;;;0.00;0.00;;;;;;;8.21;100.00;97340.19;6197092;23;19999;-73
2024/02/11 05:45:22;;;;;;;0.00;0.00;;;;;;;8.27;100.00;97345.47;6196874;23;20059;-75
2024/02/11 05:47:49;;;;;;;0.00;0.00;;;;;;;8.33;100.00;97355.06;6220993;23;20454;-73
2024/02/11 05:50:14;;;;;;;0.00;0.00;;;;;;;8.36;100.00;97365.28;6172931;23;20061;-74
2024/02/11 05:52:40;;;;;;;0.00;0.00;;;;;;;8.36;100.00;97374.25;6192847;23;20008;-73
2024/02/11 05:55:09;;;;;;;0.00;0.00;;;;;;;8.35;100.00;97374.56;6221423;23;20024;-73
2024/02/11 05:57:39;;;;;;;0.00;0.00;;;;;;;8.32;100.00;97370.59;6221335;23;20727;-74
2024/02/11 06:00:12;;;;;;;0.00;0.00;;;;;;;8.33;100.00;97376.84;6194985;23;20087;-72
2024/02/11 06:02:48;;;;;;;0.00;0.00;;;;;;;8.28;100.00;97377.00;6195426;23;20008;-73
2024/02/11 06:05:14;;;;;;;0.00;0.00;;;;;;;8.29;100.00;97387.56;6221020;23;20388;-74
2024/02/11 06:07:41;;;;;;;0.00;0.00;;;;;;;8.24;100.00;97384.25;6218734;23;20074;-73
2024/02/11 06:10:13;;;;;;;0.00;0.00;;;;;;;8.21;100.00;97391.13;6218553;23;20783;-73
2024/02/11 06:12:43;;;;;;;0.00;0.00;;;;;;;8.19;100.00;97388.72;6218932;23;20007;-73
2024/02/11 06:15:10;;;;;;;0.00;0.00;;;;;;;8.17;100.00;97396.41;6170029;23;20042;-73
2024/02/11 06:17:46;;;;;;;0.00;0.00;;;;;;;8.11;100.00;97397.72;6221323;23;20027;-73
2024/02/11 06:20:15;;;;;;;0.00;0.00;;;;;;;8.08;100.00;97401.09;6216826;23;20016;-74
2024/02/11 06:22:42;;;;;;;0.00;0.00;;;;;;;8.10;100.00;97419.81;6221006;23;20031;-73
2024/02/11 06:25:08;;;;;;;0.00;0.00;;;;;;;8.09;100.00;97419.00;6220516;23;20004;-74
2024/02/11 06:27:34;;;;;;;0.00;0.00;;;;;;;8.04;100.00;97420.00;6171019;23;20063;-73
2024/02/11 06:29:59;;;;;;;0.00;0.00;;;;;;;8.03;100.00;97428.44;6220442;23;20004;-74
2024/02/11 06:32:25;;;;;;;0.00;0.00;;;;;;;7.98;100.00;97425.91;6168657;23;20037;-73
2024/02/11 06:34:59;;;;;;;0.00;0.00;;;;;;;7.95;100.00;97445.59;6219716;23;20007;-72
2024/02/11 06:37:24;;;;;;;0.00;0.00;;;;;;;7.91;100.00;97447.38;6169277;23;20570;-74
2024/02/11 06:39:49;;;;;;;0.00;0.00;;;;;;;7.95;100.00;97454.56;6221415;23;20040;-73
2024/02/11 06:42:15;;;;;;;0.00;0.00;;;;;;;8.08;100.00;97485.44;6169475;23;20115;-73
2024/02/11 06:44:41;;;;;;;0.00;0.00;;;;;;;8.09;100.00;97487.06;6196404;23;20435;-73
2024/02/11 06:47:10;;;;;;;0.00;0.00;;;;;;;8.12;100.00;97496.47;6171901;23;20012;-72
2024/02/11 06:49:39;;;;;;;0.00;0.00;;;;;;;8.08;100.00;97496.34;6196886;23;20012;-73
2024/02/11 06:52:09;;;;;;;0.00;0.00;;;;;;;8.04;100.00;97492.66;6249708;23;20004;-73
2024/02/11 06:54:35;;;;;;;0.00;0.00;;;;;;;8.09;100.00;97502.56;6222238;23;20091;-73
2024/02/11 06:57:07;;;;;;;0.00;0.00;;;;;;;8.07;100.00;97505.63;6223741;23;20086;-74
2024/02/11 06:59:35;;;;;;;0.00;0.00;;;;;;;8.14;100.00;97521.47;6218685;23;20008;-73
2024/02/11 07:02:04;;;;;;;0.00;0.00;;;;;;;8.13;100.00;97520.69;6170606;23;20087;-73
2024/02/11 07:04:33;;;;;;;0.00;0.00;;;;;;;8.12;100.00;97526.41;6194998;23;19992;-73
2024/02/11 07:07:04;;;;;;;0.00;0.00;;;;;;;8.09;100.00;97537.94;6219975;23;20011;-73
2024/02/11 07:09:30;;;;;;;0.00;0.00;;;;;;;8.04;100.00;97528.03;6221614;23;20066;-71
2024/02/11 07:11:58;;;;;;;0.00;0.00;;;;;;;8.07;100.00;97543.72;6218039;23;20012;-72
2024/02/11 07:14:25;;;;;;;0.00;0.00;;;;;;;8.11;100.00;97544.69;6192384;23;20095;-72
2024/02/11 07:16:51;;;;;;;0.00;0.00;;;;;;;8.08;100.00;97548.03;6217155;23;20012;-72
2024/02/11 07:19:18;;;;;;;0.00;0.00;;;;;;;8.12;100.00;97551.72;6191711;23;20052;-72
2024/02/11 07:21:43;;;;;;;0.00;0.00;;;;;;;8.15;100.00;97556.53;6191905;23;20337;-73
2024/02/11 07:24:09;;;;;;;0.10;0.10;;;;;;;8.17;100.00;97565.16;6193636;23;20082;-71
2024/02/11 07:26:38;;;;;;;0.00;0.00;;;;;;;8.13;100.00;97569.69;6215475;23;20046;-72
2024/02/11 07:29:04;;;;;;;0.00;0.00;;;;;;;8.14;100.00;97560.38;6217938;23;20102;-73
2024/02/11 07:31:33;;;;;;;0.00;0.00;;;;;;;8.17;100.00;97576.06;6194019;23;20028;-74
2024/02/11 07:34:02;;;;;;;0.00;0.00;;;;;;;8.22;100.00;97586.00;6216363;23;21397;-79
2024/02/11 07:36:28;;;;;;;0.00;0.00;;;;;;;8.24;100.00;97602.03;6218568;23;20068;-74
2024/02/11 07:38:54;;;;;;;0.00;0.00;;;;;;;8.25;100.00;97603.59;6244296;23;20099;-73
2024/02/11 07:41:21;;;;;;;0.00;0.00;;;;;;;8.26;100.00;97606.00;6218199;23;20007;-74
2024/02/11 07:43:47;;;;;;;0.00;0.00;;;;;;;8.27;100.00;97612.28;6191892;23;20091;-74
2024/02/11 07:46:13;;;;;;;0.00;0.00;;;;;;;8.24;100.00;97612.91;6217924;23;20011;-74
2024/02/11 07:48:45;;;;;;;0.00;0.00;;;;;;;8.32;100.00;97631.16;6218970;23;20330;-75
2024/02/11 07:51:12;;;;;;;0.00;0.00;;;;;;;8.35;100.00;97625.88;6218656;23;20015;-75
2024/02/11 07:53:38;;;;;;;0.00;0.00;;;;;;;8.39;100.00;97642.38;6196742;23;20004;-74
2024/02/11 07:56:06;;;;;;;0.00;0.00;;;;;;;8.35;100.00;97641.41;6166592;23;20060;-75
2024/02/11 07:58:35;;;;;;;0.00;0.00;;;;;;;8.36;100.00;97653.91;6219391;23;20062;-74
2024/02/11 08:01:00;;;;;;;0.00;0.00;;;;;;;8.32;100.00;97655.66;6168372;23;20019;-72
2024/02/11 08:03:26;;;;;;;0.00;0.00;;;;;;;8.30;100.00;97655.19;6217505;23;20012;-73
2024/02/11 08:05:51;;;;;;;0.00;0.00;;;;;;;8.39;100.00;97659.50;6190306;23;20379;-73
2024/02/11 08:08:21;;;;;;;0.00;0.00;;;;;;;8.51;100.00;97666.28;6193873;23;20024;-74
2024/02/11 08:10:47;;;;;;;0.00;0.00;;;;;;;8.58;100.00;97665.81;6216673;23;20012;-74
2024/02/11 08:13:15;;;;;;;0.00;0.00;;;;;;;8.65;100.00;97666.13;6194577;23;20419;-74
2024/02/11 08:15:40;;;;;;;0.00;0.00;;;;;;;8.75;100.00;97682.16;6220472;23;20004;-73
2024/02/11 08:18:08;;;;;;;0.00;0.00;;;;;;;8.78;100.00;97686.97;6192240;23;20478;-73
2024/02/11 08:20:34;;;;;;;0.00;0.00;;;;;;;8.68;100.00;97668.22;6241858;23;20004;-73
2024/02/11 08:22:59;;;;;;;0.00;0.00;;;;;;;8.63;100.00;97681.97;6193533;23;20493;-73
2024/02/11 08:25:25;;;;;;;0.00;0.00;;;;;;;8.54;100.00;97681.97;6168470;23;20083;-73
2024/02/11 08:27:51;;;;;;;0.00;0.00;;;;;;;8.50;100.00;97691.94;6219579;23;20062;-73
2024/02/11 08:30:17;;;;;;;0.00;0.00;;;;;;;8.46;100.00;97694.47;6191138;23;20015;-74
2024/02/11 08:32:43;;;;;;;0.00;0.00;;;;;;;8.46;100.00;97702.66;6167453;23;20008;-75
2024/02/11 08:35:12;;;;;;;0.00;0.00;;;;;;;8.50;100.00;97709.06;6169050;23;20004;-74
2024/02/11 08:37:38;;;;;;;0.10;0.10;;;;;;;8.42;100.00;97696.19;6170879;23;20040;-73
2024/02/11 08:40:04;;;;;;;0.00;0.00;;;;;;;8.51;100.00;97713.41;6197703;23;20951;-75
2024/02/11 08:42:31;;;;;;;0.00;0.00;;;;;;;8.51;100.00;97705.22;6216834;23;20004;-75
2024/02/11 08:44:58;;;;;;;0.00;0.00;;;;;;;8.61;100.00;97711.47;6197521;23;20031;-74
2024/02/11 08:47:24;;;;;;;0.00;0.00;;;;;;;8.73;100.00;97717.09;6168830;23;20056;-73
2024/02/11 08:49:51;;;;;;;0.00;0.00;;;;;;;8.93;100.00;97725.75;6194792;23;20423;-74
2024/02/11 08:52:27;;;;;;;0.00;0.00;;;;;;;9.11;100.00;97732.00;6191533;23;20027;-74
2024/02/11 08:55:04;;;;;;;0.00;0.00;;;;;;;9.41;100.00;97752.00;6173970;23;20004;-72
2024/02/11 08:57:41;;;;;;;0.00;0.00;;;;;;;9.43;100.00;97736.13;6218548;23;20004;-74
2024/02/11 09:00:16;;;;;;;0.00;0.00;;;;;;;9.89;100.00;97742.72;6217567;23;20011;-75
2024/02/11 09:02:44;;;;;;;0.00;0.00;;;;;;;10.47;100.00;97759.53;6220213;23;20378;-75
2024/02/11 09:05:12;;;;;;;0.00;0.00;;;;;;;10.72;100.00;97769.81;6195117;23;20074;-77
2024/02/11 09:07:39;;;;;;;0.00;0.00;;;;;;;10.83;100.00;97771.03;6220437;23;20024;-78
2024/02/11 09:10:08;;;;;;;0.00;0.00;;;;;;;11.08;99.55;97777.44;6220178;23;20439;-77
2024/02/11 09:12:34;;;;;;;0.00;0.00;;;;;;;11.31;98.41;97786.09;6196436;23;20012;-75
2024/02/11 09:14:59;;;;;;;0.00;0.00;;;;;;;11.20;96.69;97790.38;6217989;23;20012;-75
2024/02/11 09:17:25;;;;;;;0.00;0.00;;;;;;;10.87;96.77;97793.84;6222265;23;20648;-77
2024/02/11 09:19:52;;;;;;;0.00;0.00;;;;;;;10.61;98.31;97792.06;6219839;23;20012;-76
2024/02/11 09:22:18;;;;;;;0.00;0.00;;;;;;;10.57;99.18;97796.59;6221506;23;20012;-76
2024/02/11 09:24:44;;;;;;;0.00;0.00;;;;;;;10.49;99.40;97800.16;6248426;23;20449;-75
2024/02/11 09:27:12;;;;;;;0.00;0.00;;;;;;;10.33;99.69;97801.84;6195227;23;20057;-76
2024/02/11 09:29:38;;;;;;;0.00;0.00;;;;;;;10.08;99.75;97807.06;6222888;23;20008;-76
2024/02/11 09:32:04;;;;;;;0.00;0.00;;;;;;;9.82;100.00;97805.22;6192876;23;20426;-75
2024/02/11 09:34:30;;;;;;;0.00;0.00;;;;;;;9.66;100.00;97823.22;6220269;23;20004;-74
2024/02/11 09:36:55;;;;;;;0.00;0.00;;;;;;;9.43;100.00;97820.66;6217880;23;20035;-75
2024/02/11 09:39:21;;;;;;;0.00;0.00;;;;;;;9.33;100.00;97821.81;6219574;23;20023;-75
2024/02/11 09:41:46;;;;;;;0.10;0.10;;;;;;;9.41;100.00;97828.38;6249968;23;20011;-77
2024/02/11 09:44:22;;;;;;;0.00;0.00;;;;;;;9.50;100.00;97825.66;6195257;23;20436;-77
2024/02/11 09:46:50;;;;;;;0.00;0.00;;;;;;;9.66;100.00;97823.22;6223277;23;20054;-75
2024/02/11 09:49:20;;;;;;;0.00;0.00;;;;;;;9.91;100.00;97824.28;6229434;23;19996;-78
2024/02/11 09:51:47;;;;;;;0.00;0.00;;;;;;;10.23;100.00;97830.31;6206484;23;20334;-75
2024/02/11 09:54:16;;;;;;;0.00;0.00;;;;;;;10.52;99.61;97848.69;6257257;23;20000;-76
2024/02/11 09:56:42;;;;;;;0.00;0.00;;;;;;;10.78;97.67;97855.97;6226530;23;20008;-74
2024/02/11 09:59:15;;;;;;;0.00;0.00;;;;;;;11.14;96.74;97851.88;6200800;23;20714;-74
2024/02/11 10:01:41;;;;;;;0.00;0.00;;;;;;;11.31;94.82;97851.75;6201827;23;20004;-75
2024/02/11 10:04:07;;;;;;;0.10;0.10;;;;;;;11.50;92.74;97858.69;6200221;23;20146;-76
2024/02/11 10:06:33;;;;;;;0.00;0.00;;;;;;;11.97;91.11;97858.47;6195215;23;20011;-75
2024/02/11 10:08:58;;;;;;;0.00;0.00;;;;;;;12.26;87.51;97861.38;6217962;23;20024;-76
2024/02/11 10:11:26;;;;;;;0.00;0.00;;;;;;;12.33;85.43;97862.41;6186256;23;20156;-76
2024/02/11 10:13:59;;;;;;;0.00;0.00;;;;;;;12.44;85.03;97868.25;6216874;23;20105;-76
2024/02/11 10:16:28;;;;;;;0.00;0.00;;;;;;;12.54;85.57;97873.28;6213644;23;20015;-75
2024/02/11 10:18:58;;;;;;;0.00;0.00;;;;;;;12.68;83.69;97877.63;6212155;23;20012;-77
2024/02/11 10:21:34;;;;;;;;;;;;;;;;;;;;;
2024/02/11 10:24:02;;;;;;;0.00;0.00;;;;;;;14.84;77.73;97892.78;6216109;23;20087;-79
2024/02/11 10:26:37;;;;;;;0.00;0.00;;;;;;;15.44;69.08;97891.00;6217571;23;20008;-77
2024/02/11 10:29:08;;;;;;;0.00;0.00;;;;;;;15.14;69.39;97875.81;6218143;23;20004;-75
2024/02/11 10:32:08;;;;;;;0.00;0.00;;;;;;;15.93;69.19;97889.66;6190042;23;20008;-73
2024/02/11 10:38:42;;;;;;;;;;;;;;;;;;;;;
2024/02/11 10:41:43;;;;;;;0.00;0.00;;;;;;;15.37;61.92;97894.38;6181208;23;20104;-75
2024/02/11 10:44:59;;;;;;;;;;;;;;;;;;;;;
2024/02/11 10:48:08;;;;;;;0.00;0.00;;;;;;;12.45;73.81;97890.97;6094041;23;20062;-75
2024/02/11 10:58:08;;;;;;;;;;;;;;;;;;;;;
2024/02/11 11:01:00;;;;;;;0.00;0.00;;;;;;;11.13;87.79;97954.22;6183289;23;20588;-75
2024/02/11 11:03:59;;;;;;;;;;;;;;;;;;;;;
2024/02/11 11:07:18;;;;;;;0.00;0.00;;;;;;;12.45;82.12;97948.53;6107498;23;20500;-75
2024/02/11 11:10:29;;;;;;;0.00;0.00;;;;;;;12.85;77.65;97917.72;6150825;23;20017;-75
2024/02/11 11:12:57;;;;;;;0.00;0.00;;;;;;;13.68;77.04;97928.53;6182523;23;20009;-76
2024/02/11 11:16:23;;;;;;;0.00;0.00;;;;;;;16.29;66.43;97938.00;6183459;23;20005;-74
2024/02/11 11:19:43;;;;;;;;;;;;;;;;;;;;;
2024/02/11 11:22:35;;;;;;;0.10;0.10;;;;;;;16.25;61.77;97983.22;6150839;23;20427;-74
2024/02/11 11:25:50;;;;;;;0.00;0.00;;;;;;;18.42;56.78;97961.38;6136352;23;20014;-74
2024/02/11 11:29:19;;;;;;;;;;;;;;;;;;;;;
2024/02/11 11:32:22;;;;;;;;;;;;;;;;;;;;;
2024/02/11 11:34:50;;;;;;;0.00;0.00;;;;;;;23.84;39.19;97980.69;6156710;23;20081;-74
2024/02/11 11:37:16;;;;;;;0.00;0.00;;;;;;;21.99;41.20;97993.44;6179457;23;20012;-73
2024/02/11 11:39:46;;;;;;;0.00;0.00;;;;;;;19.50;45.73;97992.03;6186897;23;20009;-75
2024/02/11 11:42:14;;;;;;;0.00;0.00;;;;;;;17.49;50.65;98015.41;6184197;23;20072;-74
2024/02/11 11:44:40;;;;;;;0.00;0.00;;;;;;;16.05;54.14;97980.50;6207349;23;20019;-75
2024/02/11 11:47:06;;;;;;;0.00;0.00;;;;;;;15.45;57.38;98000.78;6182742;23;20028;-75
2024/02/11 11:49:37;;;;;;;0.00;0.00;;;;;;;15.25;58.38;98015.66;6179528;23;20009;-74
2024/02/11 11:52:03;;;;;;;0.00;0.00;;;;;;;14.69;59.93;98020.13;6177869;23;20051;-74
2024/02/11 11:54:30;;;;;;;0.00;0.00;;;;;;;14.02;62.33;98020.59;6199569;23;20005;-75
2024/02/11 11:56:59;;;;;;;0.00;0.00;;;;;;;13.74;64.41;98026.84;6179144;23;20009;-73
2024/02/11 11:59:28;;;;;;;0.00;0.00;;;;;;;13.42;63.87;98023.09;6155635;23;20082;-74
2024/02/11 12:01:57;;;;;;;0.00;0.00;;;;;;;13.19;66.12;98023.50;6159004;23;20036;-73
2024/02/11 12:04:23;;;;;;;0.10;0.10;;;;;;;13.18;66.01;98015.59;6179531;23;20275;-74
2024/02/11 12:06:48;;;;;;;0.00;0.00;;;;;;;13.59;66.22;98020.09;6209768;23;20008;-73